sensor_id;sensor_type;location;lat;lon;timestamp;temperature;humidity
26599;DHT22;14240;51.064;16.612;2023-06-10T00:00:45;15.80;99.90
26599;DHT22;14240;51.064;16.612;2023-06-10T00:03:11;15.70;99.90
26599;DHT22;14240;51.064;16.612;2023-06-10T00:05:37;15.70;99.90
26599;DHT22;14240;51.064;16.612;2023-06-10T00:08:05;15.70;99.90
26599;DHT22;14240;51.064;16.612;2023-06-10T00:10:36;15.70;99.90
26599;DHT22;14240;51.064;16.612;2023-06-10T00:13:05;15.70;99.90
26599;DHT22;14240;51.064;16.612;2023-06-10T00:15:34;15.80;99.90
26599;DHT22;14240;51.064;16.612;2023-06-10T00:18:01;15.70;99.90
26599;DHT22;14240;51.064;16.612;2023-06-10T00:20:27;15.60;99.90
26599;DHT22;14240;51.064;16.612;2023-06-10T00:22:54;15.60;99.90
26599;DHT22;14240;51.064;16.612;2023-06-10T00:25:20;15.60;99.90
26599;DHT22;14240;51.064;16.612;2023-06-10T00:27:50;15.50;99.90
26599;DHT22;14240;51.064;16.612;2023-06-10T00:30:18;15.50;99.90
26599;DHT22;14240;51.064;16.612;2023-06-10T00:32:44;15.40;99.90
26599;DHT22;14240;51.064;16.612;2023-06-10T00:35:12;15.40;99.90
26599;DHT22;14240;51.064;16.612;2023-06-10T00:37:41;15.40;99.90
26599;DHT22;14240;51.064;16.612;2023-06-10T00:40:08;15.30;99.90
26599;DHT22;14240;51.064;16.612;2023-06-10T00:42:43;15.30;99.90
26599;DHT22;14240;51.064;16.612;2023-06-10T00:45:11;15.30;99.90
26599;DHT22;14240;51.064;16.612;2023-06-10T00:47:41;15.30;99.90
26599;DHT22;14240;51.064;16.612;2023-06-10T00:50:09;15.30;99.90
26599;DHT22;14240;51.064;16.612;2023-06-10T00:52:36;15.30;99.90
26599;DHT22;14240;51.064;16.612;2023-06-10T00:55:03;15.20;99.90
26599;DHT22;14240;51.064;16.612;2023-06-10T00:57:32;15.20;99.90
26599;DHT22;14240;51.064;16.612;2023-06-10T01:00:01;15.20;99.90
26599;DHT22;14240;51.064;16.612;2023-06-10T01:02:27;15.20;99.90
26599;DHT22;14240;51.064;16.612;2023-06-10T01:04:53;15.20;99.90
26599;DHT22;14240;51.064;16.612;2023-06-10T01:07:27;15.30;99.90
26599;DHT22;14240;51.064;16.612;2023-06-10T01:15:26;15.20;99.90
26599;DHT22;14240;51.064;16.612;2023-06-10T01:18:01;15.20;99.90
26599;DHT22;14240;51.064;16.612;2023-06-10T01:20:28;15.10;99.90
26599;DHT22;14240;51.064;16.612;2023-06-10T01:22:57;15.10;99.90
26599;DHT22;14240;51.064;16.612;2023-06-10T01:25:24;15.10;99.90
26599;DHT22;14240;51.064;16.612;2023-06-10T01:31:16;15.10;99.90
26599;DHT22;14240;51.064;16.612;2023-06-10T01:33:28;15.10;99.90
26599;DHT22;14240;51.064;16.612;2023-06-10T01:35:58;15.00;99.90
26599;DHT22;14240;51.064;16.612;2023-06-10T01:38:27;15.20;99.90
26599;DHT22;14240;51.064;16.612;2023-06-10T01:40:58;15.00;99.90
26599;DHT22;14240;51.064;16.612;2023-06-10T01:43:23;15.00;99.90
26599;DHT22;14240;51.064;16.612;2023-06-10T01:45:49;15.00;99.90
26599;DHT22;14240;51.064;16.612;2023-06-10T01:48:15;15.00;99.90
26599;DHT22;14240;51.064;16.612;2023-06-10T01:50:41;15.00;99.90
26599;DHT22;14240;51.064;16.612;2023-06-10T01:53:06;15.00;99.90
26599;DHT22;14240;51.064;16.612;2023-06-10T01:55:32;15.00;99.90
26599;DHT22;14240;51.064;16.612;2023-06-10T01:58:00;15.00;99.90
26599;DHT22;14240;51.064;16.612;2023-06-10T02:00:32;15.00;99.90
26599;DHT22;14240;51.064;16.612;2023-06-10T02:02:57;15.00;99.90
26599;DHT22;14240;51.064;16.612;2023-06-10T02:05:23;15.00;99.90
26599;DHT22;14240;51.064;16.612;2023-06-10T02:07:49;14.90;99.90
26599;DHT22;14240;51.064;16.612;2023-06-10T02:10:16;15.00;99.90
26599;DHT22;14240;51.064;16.612;2023-06-10T02:12:47;15.00;99.90
26599;DHT22;14240;51.064;16.612;2023-06-10T02:15:16;15.00;99.90
26599;DHT22;14240;51.064;16.612;2023-06-10T02:17:43;15.00;99.90
26599;DHT22;14240;51.064;16.612;2023-06-10T02:20:10;14.90;99.90
26599;DHT22;14240;51.064;16.612;2023-06-10T02:22:42;14.90;99.90
26599;DHT22;14240;51.064;16.612;2023-06-10T02:25:09;14.80;99.90
26599;DHT22;14240;51.064;16.612;2023-06-10T02:27:35;15.00;99.90
26599;DHT22;14240;51.064;16.612;2023-06-10T02:30:04;15.00;99.90
26599;DHT22;14240;51.064;16.612;2023-06-10T02:32:32;15.00;99.90
26599;DHT22;14240;51.064;16.612;2023-06-10T02:34:58;15.00;99.90
26599;DHT22;14240;51.064;16.612;2023-06-10T02:37:28;15.00;99.90
26599;DHT22;14240;51.064;16.612;2023-06-10T02:39:58;15.00;99.90
26599;DHT22;14240;51.064;16.612;2023-06-10T02:42:24;15.00;99.90
26599;DHT22;14240;51.064;16.612;2023-06-10T02:44:52;15.00;99.90
26599;DHT22;14240;51.064;16.612;2023-06-10T02:47:26;15.00;99.90
26599;DHT22;14240;51.064;16.612;2023-06-10T02:49:51;15.00;99.90
26599;DHT22;14240;51.064;16.612;2023-06-10T02:52:17;15.20;99.90
26599;DHT22;14240;51.064;16.612;2023-06-10T02:54:45;15.10;99.90
26599;DHT22;14240;51.064;16.612;2023-06-10T02:57:17;15.10;99.90
26599;DHT22;14240;51.064;16.612;2023-06-10T02:59:46;15.10;99.90
26599;DHT22;14240;51.064;16.612;2023-06-10T03:02:12;15.10;99.90
26599;DHT22;14240;51.064;16.612;2023-06-10T03:04:38;15.10;99.90
26599;DHT22;14240;51.064;16.612;2023-06-10T03:07:04;14.80;99.90
26599;DHT22;14240;51.064;16.612;2023-06-10T03:09:34;15.20;99.90
26599;DHT22;14240;51.064;16.612;2023-06-10T03:12:00;15.20;99.90
26599;DHT22;14240;51.064;16.612;2023-06-10T03:14:26;15.20;99.90
26599;DHT22;14240;51.064;16.612;2023-06-10T03:16:52;15.20;99.90
26599;DHT22;14240;51.064;16.612;2023-06-10T03:19:18;15.30;99.90
26599;DHT22;14240;51.064;16.612;2023-06-10T03:21:50;15.30;99.90
26599;DHT22;14240;51.064;16.612;2023-06-10T03:24:20;15.30;99.90
26599;DHT22;14240;51.064;16.612;2023-06-10T03:26:47;15.30;99.90
26599;DHT22;14240;51.064;16.612;2023-06-10T03:29:12;15.30;99.90
26599;DHT22;14240;51.064;16.612;2023-06-10T03:31:38;15.40;99.90
26599;DHT22;14240;51.064;16.612;2023-06-10T03:34:07;15.40;99.90
26599;DHT22;14240;51.064;16.612;2023-06-10T03:36:36;15.40;99.90
26599;DHT22;14240;51.064;16.612;2023-06-10T03:39:03;15.40;99.90
26599;DHT22;14240;51.064;16.612;2023-06-10T03:41:29;15.40;99.90
26599;DHT22;14240;51.064;16.612;2023-06-10T03:43:55;15.50;99.90
26599;DHT22;14240;51.064;16.612;2023-06-10T03:46:21;15.50;99.90
26599;DHT22;14240;51.064;16.612;2023-06-10T03:48:46;15.60;99.90
26599;DHT22;14240;51.064;16.612;2023-06-10T03:51:13;15.70;99.90
26599;DHT22;14240;51.064;16.612;2023-06-10T03:53:42;15.80;99.90
26599;DHT22;14240;51.064;16.612;2023-06-10T03:56:08;15.70;99.90
26599;DHT22;14240;51.064;16.612;2023-06-10T03:58:34;15.80;99.90
26599;DHT22;14240;51.064;16.612;2023-06-10T04:01:02;15.80;99.90
26599;DHT22;14240;51.064;16.612;2023-06-10T04:03:28;15.90;99.90
26599;DHT22;14240;51.064;16.612;2023-06-10T04:05:54;15.90;99.90
26599;DHT22;14240;51.064;16.612;2023-06-10T04:08:20;16.00;99.90
26599;DHT22;14240;51.064;16.612;2023-06-10T04:10:48;16.00;99.90
26599;DHT22;14240;51.064;16.612;2023-06-10T04:13:14;16.10;99.90
26599;DHT22;14240;51.064;16.612;2023-06-10T04:15:40;16.10;99.90
26599;DHT22;14240;51.064;16.612;2023-06-10T04:18:06;16.20;99.90
26599;DHT22;14240;51.064;16.612;2023-06-10T04:20:32;16.20;99.90
26599;DHT22;14240;51.064;16.612;2023-06-10T04:22:58;16.20;99.90
26599;DHT22;14240;51.064;16.612;2023-06-10T04:25:25;16.30;99.90
26599;DHT22;14240;51.064;16.612;2023-06-10T04:27:51;16.30;99.90
26599;DHT22;14240;51.064;16.612;2023-06-10T04:30:17;16.40;99.90
26599;DHT22;14240;51.064;16.612;2023-06-10T04:32:45;16.40;99.90
26599;DHT22;14240;51.064;16.612;2023-06-10T04:35:13;16.40;99.90
26599;DHT22;14240;51.064;16.612;2023-06-10T04:37:41;16.40;99.90
26599;DHT22;14240;51.064;16.612;2023-06-10T04:40:08;16.50;99.90
26599;DHT22;14240;51.064;16.612;2023-06-10T04:42:36;16.50;99.90
26599;DHT22;14240;51.064;16.612;2023-06-10T04:45:02;16.50;99.90
26599;DHT22;14240;51.064;16.612;2023-06-10T04:47:29;16.60;99.90
26599;DHT22;14240;51.064;16.612;2023-06-10T04:49:59;16.60;99.90
26599;DHT22;14240;51.064;16.612;2023-06-10T04:52:25;16.60;99.90
26599;DHT22;14240;51.064;16.612;2023-06-10T04:54:51;16.60;99.90
26599;DHT22;14240;51.064;16.612;2023-06-10T04:57:17;16.70;99.90
26599;DHT22;14240;51.064;16.612;2023-06-10T04:59:43;16.70;99.90
26599;DHT22;14240;51.064;16.612;2023-06-10T05:02:11;16.70;99.90
26599;DHT22;14240;51.064;16.612;2023-06-10T05:04:37;16.80;99.90
26599;DHT22;14240;51.064;16.612;2023-06-10T05:07:03;16.70;99.90
26599;DHT22;14240;51.064;16.612;2023-06-10T05:09:31;16.80;99.90
26599;DHT22;14240;51.064;16.612;2023-06-10T05:12:01;16.80;99.90
26599;DHT22;14240;51.064;16.612;2023-06-10T05:14:30;16.80;99.90
26599;DHT22;14240;51.064;16.612;2023-06-10T05:16:56;16.90;99.90
26599;DHT22;14240;51.064;16.612;2023-06-10T05:19:26;16.90;99.90
26599;DHT22;14240;51.064;16.612;2023-06-10T05:21:55;16.90;99.90
26599;DHT22;14240;51.064;16.612;2023-06-10T05:24:22;16.90;99.90
26599;DHT22;14240;51.064;16.612;2023-06-10T05:26:50;16.90;99.90
26599;DHT22;14240;51.064;16.612;2023-06-10T05:29:16;16.90;99.90
26599;DHT22;14240;51.064;16.612;2023-06-10T05:31:42;16.90;99.90
26599;DHT22;14240;51.064;16.612;2023-06-10T05:34:08;17.00;99.90
26599;DHT22;14240;51.064;16.612;2023-06-10T05:36:34;17.00;99.90
26599;DHT22;14240;51.064;16.612;2023-06-10T05:39:02;17.00;99.90
26599;DHT22;14240;51.064;16.612;2023-06-10T05:41:28;17.00;99.90
26599;DHT22;14240;51.064;16.612;2023-06-10T05:43:54;17.20;99.90
26599;DHT22;14240;51.064;16.612;2023-06-10T05:46:20;17.10;99.90
26599;DHT22;14240;51.064;16.612;2023-06-10T05:48:46;17.10;99.90
26599;DHT22;14240;51.064;16.612;2023-06-10T05:51:11;17.20;99.90
26599;DHT22;14240;51.064;16.612;2023-06-10T05:53:37;17.20;99.90
26599;DHT22;14240;51.064;16.612;2023-06-10T05:56:04;17.20;99.90
26599;DHT22;14240;51.064;16.612;2023-06-10T05:58:31;17.30;99.90
26599;DHT22;14240;51.064;16.612;2023-06-10T06:00:58;17.30;99.90
26599;DHT22;14240;51.064;16.612;2023-06-10T06:03:27;17.30;99.90
26599;DHT22;14240;51.064;16.612;2023-06-10T06:05:54;17.40;99.90
26599;DHT22;14240;51.064;16.612;2023-06-10T06:08:19;17.50;99.90
26599;DHT22;14240;51.064;16.612;2023-06-10T06:10:46;17.50;99.90
26599;DHT22;14240;51.064;16.612;2023-06-10T06:13:15;17.60;99.90
26599;DHT22;14240;51.064;16.612;2023-06-10T06:15:41;17.70;99.90
26599;DHT22;14240;51.064;16.612;2023-06-10T06:18:07;17.70;99.90
26599;DHT22;14240;51.064;16.612;2023-06-10T06:20:33;17.80;99.90
26599;DHT22;14240;51.064;16.612;2023-06-10T06:23:00;17.80;99.90
26599;DHT22;14240;51.064;16.612;2023-06-10T06:25:27;17.90;99.90
26599;DHT22;14240;51.064;16.612;2023-06-10T06:27:56;17.90;99.90
26599;DHT22;14240;51.064;16.612;2023-06-10T06:30:26;18.00;99.90
26599;DHT22;14240;51.064;16.612;2023-06-10T06:32:51;18.00;99.90
26599;DHT22;14240;51.064;16.612;2023-06-10T06:35:17;18.00;99.90
26599;DHT22;14240;51.064;16.612;2023-06-10T06:37:45;18.10;99.90
26599;DHT22;14240;51.064;16.612;2023-06-10T06:40:12;18.20;99.90
26599;DHT22;14240;51.064;16.612;2023-06-10T06:42:42;18.20;99.90
26599;DHT22;14240;51.064;16.612;2023-06-10T06:45:07;18.30;99.90
26599;DHT22;14240;51.064;16.612;2023-06-10T06:47:33;18.40;99.90
26599;DHT22;14240;51.064;16.612;2023-06-10T06:49:59;18.50;99.90
26599;DHT22;14240;51.064;16.612;2023-06-10T06:52:26;18.60;99.90
26599;DHT22;14240;51.064;16.612;2023-06-10T06:54:54;18.70;99.90
26599;DHT22;14240;51.064;16.612;2023-06-10T06:57:21;18.80;99.90
26599;DHT22;14240;51.064;16.612;2023-06-10T06:59:49;18.90;99.90
26599;DHT22;14240;51.064;16.612;2023-06-10T07:02:15;19.00;99.90
26599;DHT22;14240;51.064;16.612;2023-06-10T07:04:47;19.20;99.90
26599;DHT22;14240;51.064;16.612;2023-06-10T07:07:17;19.40;99.90
26599;DHT22;14240;51.064;16.612;2023-06-10T07:09:43;19.50;99.90
26599;DHT22;14240;51.064;16.612;2023-06-10T07:12:09;19.80;99.90
26599;DHT22;14240;51.064;16.612;2023-06-10T07:14:36;20.00;99.90
26599;DHT22;14240;51.064;16.612;2023-06-10T07:17:02;20.30;99.90
26599;DHT22;14240;51.064;16.612;2023-06-10T07:19:28;20.40;99.90
26599;DHT22;14240;51.064;16.612;2023-06-10T07:21:58;20.60;99.90
26599;DHT22;14240;51.064;16.612;2023-06-10T07:24:27;20.80;99.90
26599;DHT22;14240;51.064;16.612;2023-06-10T07:26:53;21.00;99.90
26599;DHT22;14240;51.064;16.612;2023-06-10T07:29:29;21.20;99.90
26599;DHT22;14240;51.064;16.612;2023-06-10T07:31:55;21.40;99.90
26599;DHT22;14240;51.064;16.612;2023-06-10T07:34:23;21.50;99.90
26599;DHT22;14240;51.064;16.612;2023-06-10T07:36:53;21.60;99.90
26599;DHT22;14240;51.064;16.612;2023-06-10T07:39:18;21.70;99.90
26599;DHT22;14240;51.064;16.612;2023-06-10T07:41:44;21.80;99.90
26599;DHT22;14240;51.064;16.612;2023-06-10T07:44:10;21.80;99.90
26599;DHT22;14240;51.064;16.612;2023-06-10T07:46:35;21.80;99.90
26599;DHT22;14240;51.064;16.612;2023-06-10T07:49:01;22.00;99.90
26599;DHT22;14240;51.064;16.612;2023-06-10T07:51:27;21.80;99.90
26599;DHT22;14240;51.064;16.612;2023-06-10T07:53:53;21.80;99.90
26599;DHT22;14240;51.064;16.612;2023-06-10T07:56:18;21.80;99.90
26599;DHT22;14240;51.064;16.612;2023-06-10T07:58:46;21.80;99.90
26599;DHT22;14240;51.064;16.612;2023-06-10T08:01:11;21.80;99.90
26599;DHT22;14240;51.064;16.612;2023-06-10T08:03:37;21.70;99.90
26599;DHT22;14240;51.064;16.612;2023-06-10T08:06:04;21.70;99.90
26599;DHT22;14240;51.064;16.612;2023-06-10T08:08:33;21.60;99.90
26599;DHT22;14240;51.064;16.612;2023-06-10T08:11:00;21.60;99.90
26599;DHT22;14240;51.064;16.612;2023-06-10T08:13:25;21.60;99.90
26599;DHT22;14240;51.064;16.612;2023-06-10T08:15:51;21.70;99.90
26599;DHT22;14240;51.064;16.612;2023-06-10T08:18:19;21.70;99.90
26599;DHT22;14240;51.064;16.612;2023-06-10T08:20:44;21.80;99.90
26599;DHT22;14240;51.064;16.612;2023-06-10T08:23:10;21.80;99.90
26599;DHT22;14240;51.064;16.612;2023-06-10T08:25:38;21.80;99.90
26599;DHT22;14240;51.064;16.612;2023-06-10T08:28:05;21.90;99.90
26599;DHT22;14240;51.064;16.612;2023-06-10T08:30:31;21.90;99.90
26599;DHT22;14240;51.064;16.612;2023-06-10T08:32:56;22.00;99.90
26599;DHT22;14240;51.064;16.612;2023-06-10T08:35:22;22.00;99.90
26599;DHT22;14240;51.064;16.612;2023-06-10T08:37:48;22.00;99.90
26599;DHT22;14240;51.064;16.612;2023-06-10T08:40:13;22.00;99.90
26599;DHT22;14240;51.064;16.612;2023-06-10T08:43:06;22.10;99.90
26599;DHT22;14240;51.064;16.612;2023-06-10T08:45:35;22.20;99.90
26599;DHT22;14240;51.064;16.612;2023-06-10T08:48:08;22.30;99.90
26599;DHT22;14240;51.064;16.612;2023-06-10T08:50:39;22.30;99.90
26599;DHT22;14240;51.064;16.612;2023-06-10T08:53:06;22.30;99.90
26599;DHT22;14240;51.064;16.612;2023-06-10T08:55:33;22.30;99.90
26599;DHT22;14240;51.064;16.612;2023-06-10T08:58:01;22.40;99.90
26599;DHT22;14240;51.064;16.612;2023-06-10T09:00:30;22.40;99.90
26599;DHT22;14240;51.064;16.612;2023-06-10T09:03:00;22.50;99.90
26599;DHT22;14240;51.064;16.612;2023-06-10T09:05:34;22.60;99.90
26599;DHT22;14240;51.064;16.612;2023-06-10T09:08:06;22.60;99.90
26599;DHT22;14240;51.064;16.612;2023-06-10T09:10:33;22.70;99.90
26599;DHT22;14240;51.064;16.612;2023-06-10T09:12:59;22.90;99.90
26599;DHT22;14240;51.064;16.612;2023-06-10T09:15:25;23.00;99.90
26599;DHT22;14240;51.064;16.612;2023-06-10T09:17:51;23.10;99.90
26599;DHT22;14240;51.064;16.612;2023-06-10T09:20:17;23.30;99.90
26599;DHT22;14240;51.064;16.612;2023-06-10T09:22:45;23.40;99.90
26599;DHT22;14240;51.064;16.612;2023-06-10T09:25:17;23.60;99.90
26599;DHT22;14240;51.064;16.612;2023-06-10T09:27:49;23.70;99.90
26599;DHT22;14240;51.064;16.612;2023-06-10T09:30:49;23.80;99.90
26599;DHT22;14240;51.064;16.612;2023-06-10T09:33:24;23.90;99.90
26599;DHT22;14240;51.064;16.612;2023-06-10T09:35:52;24.00;99.90
26599;DHT22;14240;51.064;16.612;2023-06-10T09:38:22;24.00;99.90
26599;DHT22;14240;51.064;16.612;2023-06-10T09:40:52;24.10;99.90
26599;DHT22;14240;51.064;16.612;2023-06-10T09:43:22;24.20;99.90
26599;DHT22;14240;51.064;16.612;2023-06-10T09:45:49;24.30;99.90
26599;DHT22;14240;51.064;16.612;2023-06-10T09:48:18;24.30;99.90
26599;DHT22;14240;51.064;16.612;2023-06-10T09:50:45;24.30;99.90
26599;DHT22;14240;51.064;16.612;2023-06-10T09:53:11;24.30;99.90
26599;DHT22;14240;51.064;16.612;2023-06-10T09:55:41;24.40;99.90
26599;DHT22;14240;51.064;16.612;2023-06-10T09:58:08;24.50;99.90
26599;DHT22;14240;51.064;16.612;2023-06-10T10:00:38;24.60;99.90
26599;DHT22;14240;51.064;16.612;2023-06-10T10:03:07;24.70;99.90
26599;DHT22;14240;51.064;16.612;2023-06-10T10:05:33;24.80;99.90
26599;DHT22;14240;51.064;16.612;2023-06-10T10:07:58;24.90;99.90
26599;DHT22;14240;51.064;16.612;2023-06-10T10:10:26;25.00;99.90
26599;DHT22;14240;51.064;16.612;2023-06-10T10:12:54;25.00;99.90
26599;DHT22;14240;51.064;16.612;2023-06-10T10:15:21;25.10;99.90
26599;DHT22;14240;51.064;16.612;2023-06-10T10:18:06;25.20;99.90
26599;DHT22;14240;51.064;16.612;2023-06-10T10:20:34;25.20;99.90
26599;DHT22;14240;51.064;16.612;2023-06-10T10:23:03;25.20;99.90
26599;DHT22;14240;51.064;16.612;2023-06-10T10:25:40;25.10;99.90
26599;DHT22;14240;51.064;16.612;2023-06-10T10:28:11;25.00;99.90
26599;DHT22;14240;51.064;16.612;2023-06-10T10:30:49;25.10;99.90
26599;DHT22;14240;51.064;16.612;2023-06-10T10:33:22;25.10;99.90
26599;DHT22;14240;51.064;16.612;2023-06-10T10:35:49;25.20;99.90
26599;DHT22;14240;51.064;16.612;2023-06-10T10:38:19;25.20;99.90
26599;DHT22;14240;51.064;16.612;2023-06-10T10:40:46;25.20;99.90
26599;DHT22;14240;51.064;16.612;2023-06-10T10:43:15;25.20;99.90
26599;DHT22;14240;51.064;16.612;2023-06-10T10:45:46;25.30;99.90
26599;DHT22;14240;51.064;16.612;2023-06-10T10:48:33;25.40;99.90
26599;DHT22;14240;51.064;16.612;2023-06-10T10:51:01;25.50;99.90
26599;DHT22;14240;51.064;16.612;2023-06-10T10:53:32;25.60;99.90
26599;DHT22;14240;51.064;16.612;2023-06-10T10:56:07;25.80;99.90
26599;DHT22;14240;51.064;16.612;2023-06-10T10:58:34;25.90;99.90
26599;DHT22;14240;51.064;16.612;2023-06-10T11:01:13;26.00;99.90
26599;DHT22;14240;51.064;16.612;2023-06-10T11:03:47;26.00;99.90
26599;DHT22;14240;51.064;16.612;2023-06-10T11:06:19;26.10;99.90
26599;DHT22;14240;51.064;16.612;2023-06-10T11:08:46;26.10;99.90
26599;DHT22;14240;51.064;16.612;2023-06-10T11:11:25;26.10;99.90
26599;DHT22;14240;51.064;16.612;2023-06-10T11:16:30;26.00;99.90
26599;DHT22;14240;51.064;16.612;2023-06-10T11:19:07;26.00;99.90
26599;DHT22;14240;51.064;16.612;2023-06-10T11:21:58;26.00;99.90
26599;DHT22;14240;51.064;16.612;2023-06-10T11:24:25;25.90;99.90
26599;DHT22;14240;51.064;16.612;2023-06-10T11:26:52;25.80;99.90
26599;DHT22;14240;51.064;16.612;2023-06-10T11:29:19;25.70;99.90
26599;DHT22;14240;51.064;16.612;2023-06-10T11:31:49;25.60;99.90
26599;DHT22;14240;51.064;16.612;2023-06-10T11:34:21;25.60;99.90
26599;DHT22;14240;51.064;16.612;2023-06-10T11:36:49;25.70;99.90
26599;DHT22;14240;51.064;16.612;2023-06-10T11:39:15;25.80;99.90
26599;DHT22;14240;51.064;16.612;2023-06-10T11:41:43;25.90;99.90
26599;DHT22;14240;51.064;16.612;2023-06-10T11:44:11;26.00;99.90
26599;DHT22;14240;51.064;16.612;2023-06-10T11:46:37;26.20;99.90
26599;DHT22;14240;51.064;16.612;2023-06-10T11:49:04;26.30;99.90
26599;DHT22;14240;51.064;16.612;2023-06-10T11:51:40;26.40;99.20
26599;DHT22;14240;51.064;16.612;2023-06-10T11:54:09;26.40;99.70
26599;DHT22;14240;51.064;16.612;2023-06-10T11:56:35;26.50;98.80
26599;DHT22;14240;51.064;16.612;2023-06-10T11:59:03;26.60;98.30
26599;DHT22;14240;51.064;16.612;2023-06-10T12:01:31;26.60;98.20
26599;DHT22;14240;51.064;16.612;2023-06-10T12:03:59;26.60;97.60
26599;DHT22;14240;51.064;16.612;2023-06-10T12:06:26;26.60;98.20
26599;DHT22;14240;51.064;16.612;2023-06-10T12:08:53;26.50;97.40
26599;DHT22;14240;51.064;16.612;2023-06-10T12:11:18;26.60;96.40
26599;DHT22;14240;51.064;16.612;2023-06-10T12:13:49;26.70;97.00
26599;DHT22;14240;51.064;16.612;2023-06-10T12:16:16;27.10;95.80
26599;DHT22;14240;51.064;16.612;2023-06-10T12:18:46;26.80;95.60
26599;DHT22;14240;51.064;16.612;2023-06-10T12:21:16;26.90;95.10
26599;DHT22;14240;51.064;16.612;2023-06-10T12:24:03;26.90;94.70
26599;DHT22;14240;51.064;16.612;2023-06-10T12:26:41;26.90;94.40
26599;DHT22;14240;51.064;16.612;2023-06-10T12:32:01;26.90;94.40
26599;DHT22;14240;51.064;16.612;2023-06-10T12:37:01;26.90;92.90
26599;DHT22;14240;51.064;16.612;2023-06-10T12:39:28;26.80;93.10
26599;DHT22;14240;51.064;16.612;2023-06-10T12:41:54;26.80;92.40
26599;DHT22;14240;51.064;16.612;2023-06-10T12:44:29;26.60;91.60
26599;DHT22;14240;51.064;16.612;2023-06-10T12:46:55;26.50;91.40
26599;DHT22;14240;51.064;16.612;2023-06-10T12:49:21;26.40;91.70
26599;DHT22;14240;51.064;16.612;2023-06-10T12:51:47;26.30;92.10
26599;DHT22;14240;51.064;16.612;2023-06-10T12:54:13;26.20;92.00
26599;DHT22;14240;51.064;16.612;2023-06-10T12:56:38;26.10;92.20
26599;DHT22;14240;51.064;16.612;2023-06-10T12:59:04;26.10;92.80
26599;DHT22;14240;51.064;16.612;2023-06-10T13:01:32;26.10;91.10
26599;DHT22;14240;51.064;16.612;2023-06-10T13:03:58;26.20;90.80
26599;DHT22;14240;51.064;16.612;2023-06-10T13:06:25;26.40;90.60
26599;DHT22;14240;51.064;16.612;2023-06-10T13:08:51;26.40;90.80
26599;DHT22;14240;51.064;16.612;2023-06-10T13:11:16;26.60;91.00
26599;DHT22;14240;51.064;16.612;2023-06-10T13:13:42;26.60;92.40
26599;DHT22;14240;51.064;16.612;2023-06-10T13:16:10;26.60;94.10
26599;DHT22;14240;51.064;16.612;2023-06-10T13:18:35;26.60;95.20
26599;DHT22;14240;51.064;16.612;2023-06-10T13:21:04;26.60;95.80
26599;DHT22;14240;51.064;16.612;2023-06-10T13:23:30;26.70;95.50
26599;DHT22;14240;51.064;16.612;2023-06-10T13:25:59;26.80;95.30
26599;DHT22;14240;51.064;16.612;2023-06-10T13:28:25;26.80;95.20
26599;DHT22;14240;51.064;16.612;2023-06-10T13:30:51;26.80;95.40
26599;DHT22;14240;51.064;16.612;2023-06-10T13:33:16;26.80;96.20
26599;DHT22;14240;51.064;16.612;2023-06-10T13:35:42;26.70;93.30
26599;DHT22;14240;51.064;16.612;2023-06-10T13:38:15;26.70;92.60
26599;DHT22;14240;51.064;16.612;2023-06-10T13:40:42;26.00;91.50
26599;DHT22;14240;51.064;16.612;2023-06-10T13:43:12;26.40;91.10
26599;DHT22;14240;51.064;16.612;2023-06-10T13:45:44;26.50;90.90
26599;DHT22;14240;51.064;16.612;2023-06-10T13:48:11;26.50;90.10
26599;DHT22;14240;51.064;16.612;2023-06-10T13:50:45;26.50;90.00
26599;DHT22;14240;51.064;16.612;2023-06-10T13:53:15;26.60;87.40
26599;DHT22;14240;51.064;16.612;2023-06-10T13:55:45;26.40;85.70
26599;DHT22;14240;51.064;16.612;2023-06-10T13:58:11;26.30;84.50
26599;DHT22;14240;51.064;16.612;2023-06-10T14:03:47;26.20;80.60
26599;DHT22;14240;51.064;16.612;2023-06-10T14:06:13;26.20;81.20
26599;DHT22;14240;51.064;16.612;2023-06-10T14:08:44;26.20;81.00
26599;DHT22;14240;51.064;16.612;2023-06-10T14:11:16;26.20;77.90
26599;DHT22;14240;51.064;16.612;2023-06-10T14:13:45;26.20;78.40
26599;DHT22;14240;51.064;16.612;2023-06-10T14:16:11;26.20;76.80
26599;DHT22;14240;51.064;16.612;2023-06-10T14:18:37;26.20;77.50
26599;DHT22;14240;51.064;16.612;2023-06-10T14:21:06;26.30;79.10
26599;DHT22;14240;51.064;16.612;2023-06-10T14:23:32;26.20;77.90
26599;DHT22;14240;51.064;16.612;2023-06-10T14:29:24;26.10;75.60
26599;DHT22;14240;51.064;16.612;2023-06-10T14:31:58;26.00;75.90
26599;DHT22;14240;51.064;16.612;2023-06-10T14:34:24;26.00;75.60
26599;DHT22;14240;51.064;16.612;2023-06-10T14:36:54;26.00;77.10
26599;DHT22;14240;51.064;16.612;2023-06-10T14:39:20;26.00;75.30
26599;DHT22;14240;51.064;16.612;2023-06-10T14:41:46;26.00;77.30
26599;DHT22;14240;51.064;16.612;2023-06-10T14:44:11;26.10;75.40
26599;DHT22;14240;51.064;16.612;2023-06-10T14:46:37;26.10;74.90
26599;DHT22;14240;51.064;16.612;2023-06-10T14:49:02;26.10;72.30
26599;DHT22;14240;51.064;16.612;2023-06-10T14:51:28;26.20;72.00
26599;DHT22;14240;51.064;16.612;2023-06-10T14:53:54;26.20;73.20
26599;DHT22;14240;51.064;16.612;2023-06-10T14:56:19;26.20;73.50
26599;DHT22;14240;51.064;16.612;2023-06-10T14:58:47;26.20;71.20
26599;DHT22;14240;51.064;16.612;2023-06-10T15:01:15;26.20;69.80
26599;DHT22;14240;51.064;16.612;2023-06-10T15:03:48;26.20;69.20
26599;DHT22;14240;51.064;16.612;2023-06-10T15:06:18;26.10;69.70
26599;DHT22;14240;51.064;16.612;2023-06-10T15:08:46;26.10;69.10
26599;DHT22;14240;51.064;16.612;2023-06-10T15:11:14;26.00;66.90
26599;DHT22;14240;51.064;16.612;2023-06-10T15:13:40;26.00;65.90
26599;DHT22;14240;51.064;16.612;2023-06-10T15:16:05;26.00;67.60
26599;DHT22;14240;51.064;16.612;2023-06-10T15:18:31;26.00;66.50
26599;DHT22;14240;51.064;16.612;2023-06-10T15:20:57;26.00;65.90
26599;DHT22;14240;51.064;16.612;2023-06-10T15:23:23;26.00;67.20
26599;DHT22;14240;51.064;16.612;2023-06-10T15:25:51;26.00;64.90
26599;DHT22;14240;51.064;16.612;2023-06-10T15:28:22;26.00;66.30
26599;DHT22;14240;51.064;16.612;2023-06-10T15:30:47;26.00;67.30
26599;DHT22;14240;51.064;16.612;2023-06-10T15:33:13;26.00;68.50
26599;DHT22;14240;51.064;16.612;2023-06-10T15:35:38;26.00;67.70
26599;DHT22;14240;51.064;16.612;2023-06-10T15:38:04;26.00;68.40
26599;DHT22;14240;51.064;16.612;2023-06-10T15:40:29;26.00;68.90
26599;DHT22;14240;51.064;16.612;2023-06-10T15:42:55;26.00;68.40